ilmateenistus.ee keskkonnaagentuur.ee
EETN Tallinn
FTEO31 EETN 281100
TAF EETN 281128Z 2812/2912 11010KT 9999 SCT040 BECMG 2821/2823 BKN015
    OVC025 TEMPO 2901/2909 BKN007=

METAR EETN 281550Z 07007KT CAVOK 15/11 Q1017 NOSIG=
Tallinn
EEKA Kärdla
FCEO32 EETN 281200 AAA
TAF AMD EEKA 281600Z 2813/2819 CNL=

METAR EEKA 281550Z NIL=
Kärdla
EEKE Kuressaare
FCEO32 EETN 281400
TAF EEKE 281400Z 2815/2821 10010KT 9999 OVC006 BECMG 2816/2818 6000
    RA OVC010 TEMPO 2818/2821 3000 SHRA BR BKN007 SCT013CB=

METAR EEKE 281550Z 11008KT 9999 OVC007 14/12 Q1016=
Kuressaare
EEPU Pärnu
METAR EEPU 281550Z NIL=
Pärnu
EETU Tartu
METAR EETU 281550Z AUTO 12006KT 9999 OVC017/// 13/09 Q1018=
Tartu
EEEI Ämari
METAR EEEI 281550Z 09005KT CAVOK 16/10 Q1017 NOSIG=
Ämari